sensor_id;sensor_type;location;lat;lon;timestamp;P1;durP1;ratioP1;P2;durP2;ratioP2
43554;SDS011;35085;40.398;-3.702;2022-11-15T00:04:16;3.80;;;0.93;;
43554;SDS011;35085;40.398;-3.702;2022-11-15T00:14:44;1.05;;;0.82;;
43554;SDS011;35085;40.398;-3.702;2022-11-15T00:25:11;0.73;;;0.40;;
43554;SDS011;35085;40.398;-3.702;2022-11-15T00:35:39;1.42;;;0.50;;
43554;SDS011;35085;40.398;-3.702;2022-11-15T00:46:06;2.15;;;1.20;;
43554;SDS011;35085;40.398;-3.702;2022-11-15T00:56:32;0.73;;;0.52;;
43554;SDS011;35085;40.398;-3.702;2022-11-15T01:06:59;2.05;;;0.85;;
43554;SDS011;35085;40.398;-3.702;2022-11-15T01:17:26;4.70;;;1.10;;
43554;SDS011;35085;40.398;-3.702;2022-11-15T01:27:53;1.73;;;0.90;;
43554;SDS011;35085;40.398;-3.702;2022-11-15T01:38:14;3.22;;;1.05;;
43554;SDS011;35085;40.398;-3.702;2022-11-15T01:48:42;1.45;;;0.90;;
43554;SDS011;35085;40.398;-3.702;2022-11-15T01:59:09;1.67;;;1.00;;
43554;SDS011;35085;40.398;-3.702;2022-11-15T02:09:37;1.40;;;0.70;;
43554;SDS011;35085;40.398;-3.702;2022-11-15T02:30:44;0.80;;;0.50;;
43554;SDS011;35085;40.398;-3.702;2022-11-15T02:51:50;0.73;;;0.40;;
43554;SDS011;35085;40.398;-3.702;2022-11-15T03:02:32;0.70;;;0.40;;
43554;SDS011;35085;40.398;-3.702;2022-11-15T03:23:33;0.60;;;0.40;;
43554;SDS011;35085;40.398;-3.702;2022-11-15T03:33:56;0.93;;;0.43;;
43554;SDS011;35085;40.398;-3.702;2022-11-15T03:44:26;0.73;;;0.40;;
43554;SDS011;35085;40.398;-3.702;2022-11-15T03:54:54;2.17;;;0.45;;
43554;SDS011;35085;40.398;-3.702;2022-11-15T04:05:18;2.58;;;0.40;;
43554;SDS011;35085;40.398;-3.702;2022-11-15T04:15:46;2.35;;;0.60;;
43554;SDS011;35085;40.398;-3.702;2022-11-15T04:26:24;1.58;;;0.50;;
43554;SDS011;35085;40.398;-3.702;2022-11-15T04:36:51;1.10;;;0.70;;
43554;SDS011;35085;40.398;-3.702;2022-11-15T04:47:30;1.63;;;0.40;;
43554;SDS011;35085;40.398;-3.702;2022-11-15T04:57:58;0.65;;;0.40;;
43554;SDS011;35085;40.398;-3.702;2022-11-15T05:08:19;0.80;;;0.40;;
43554;SDS011;35085;40.398;-3.702;2022-11-15T05:18:39;1.73;;;0.70;;
43554;SDS011;35085;40.398;-3.702;2022-11-15T05:29:08;1.95;;;0.63;;
43554;SDS011;35085;40.398;-3.702;2022-11-15T05:39:37;1.27;;;0.70;;
43554;SDS011;35085;40.398;-3.702;2022-11-15T05:50:04;3.15;;;0.90;;
43554;SDS011;35085;40.398;-3.702;2022-11-15T06:00:24;2.22;;;0.90;;
43554;SDS011;35085;40.398;-3.702;2022-11-15T06:10:52;1.70;;;0.88;;
43554;SDS011;35085;40.398;-3.702;2022-11-15T06:21:12;3.03;;;1.30;;
43554;SDS011;35085;40.398;-3.702;2022-11-15T06:31:40;1.63;;;0.68;;
43554;SDS011;35085;40.398;-3.702;2022-11-15T06:42:09;1.85;;;0.82;;
43554;SDS011;35085;40.398;-3.702;2022-11-15T06:52:32;1.20;;;0.60;;
43554;SDS011;35085;40.398;-3.702;2022-11-15T07:02:52;0.95;;;0.60;;
43554;SDS011;35085;40.398;-3.702;2022-11-15T07:13:23;1.35;;;0.60;;
43554;SDS011;35085;40.398;-3.702;2022-11-15T07:23:51;1.35;;;0.47;;
43554;SDS011;35085;40.398;-3.702;2022-11-15T07:34:18;0.85;;;0.40;;
43554;SDS011;35085;40.398;-3.702;2022-11-15T07:44:46;2.67;;;0.70;;
43554;SDS011;35085;40.398;-3.702;2022-11-15T07:55:14;1.38;;;0.50;;
43554;SDS011;35085;40.398;-3.702;2022-11-15T08:05:42;1.35;;;0.63;;
43554;SDS011;35085;40.398;-3.702;2022-11-15T08:16:09;1.42;;;0.80;;
43554;SDS011;35085;40.398;-3.702;2022-11-15T08:26:35;1.83;;;0.70;;
43554;SDS011;35085;40.398;-3.702;2022-11-15T08:37:02;1.90;;;0.60;;
43554;SDS011;35085;40.398;-3.702;2022-11-15T08:47:23;2.55;;;0.70;;
43554;SDS011;35085;40.398;-3.702;2022-11-15T08:57:50;3.47;;;0.85;;
43554;SDS011;35085;40.398;-3.702;2022-11-15T09:08:10;1.80;;;0.70;;
43554;SDS011;35085;40.398;-3.702;2022-11-15T09:18:36;1.13;;;0.50;;
43554;SDS011;35085;40.398;-3.702;2022-11-15T09:29:03;0.77;;;0.40;;
43554;SDS011;35085;40.398;-3.702;2022-11-15T09:39:30;0.93;;;0.38;;
43554;SDS011;35085;40.398;-3.702;2022-11-15T09:49:54;2.10;;;0.20;;
43554;SDS011;35085;40.398;-3.702;2022-11-15T10:00:10;0.75;;;0.28;;
43554;SDS011;35085;40.398;-3.702;2022-11-15T10:20:48;3.25;;;0.43;;
43554;SDS011;35085;40.398;-3.702;2022-11-15T10:30:57;1.15;;;0.30;;
43554;SDS011;35085;40.398;-3.702;2022-11-15T10:51:25;5.03;;;0.80;;
43554;SDS011;35085;40.398;-3.702;2022-11-15T11:01:29;0.95;;;0.30;;
43554;SDS011;35085;40.398;-3.702;2022-11-15T11:12:05;1.90;;;0.30;;
43554;SDS011;35085;40.398;-3.702;2022-11-15T11:22:20;1.65;;;0.22;;
43554;SDS011;35085;40.398;-3.702;2022-11-15T11:42:52;5.63;;;0.30;;
43554;SDS011;35085;40.398;-3.702;2022-11-15T12:03:09;1.08;;;0.30;;
43554;SDS011;35085;40.398;-3.702;2022-11-15T12:13:14;3.35;;;0.50;;
43554;SDS011;35085;40.398;-3.702;2022-11-15T12:23:31;3.38;;;0.70;;
43554;SDS011;35085;40.398;-3.702;2022-11-15T12:33:41;3.95;;;0.55;;
43554;SDS011;35085;40.398;-3.702;2022-11-15T12:43:43;5.33;;;0.80;;
43554;SDS011;35085;40.398;-3.702;2022-11-15T12:53:49;2.17;;;0.40;;
43554;SDS011;35085;40.398;-3.702;2022-11-15T13:04:09;2.20;;;0.50;;
43554;SDS011;35085;40.398;-3.702;2022-11-15T13:24:37;2.50;;;0.60;;
43554;SDS011;35085;40.398;-3.702;2022-11-15T13:34:48;8.68;;;1.27;;
43554;SDS011;35085;40.398;-3.702;2022-11-15T13:55:08;3.80;;;1.33;;
43554;SDS011;35085;40.398;-3.702;2022-11-15T14:05:22;2.65;;;0.88;;
43554;SDS011;35085;40.398;-3.702;2022-11-15T14:15:35;2.35;;;0.55;;
43554;SDS011;35085;40.398;-3.702;2022-11-15T14:25:38;3.17;;;0.60;;
43554;SDS011;35085;40.398;-3.702;2022-11-15T14:35:46;3.40;;;1.20;;
43554;SDS011;35085;40.398;-3.702;2022-11-15T14:45:55;2.83;;;0.80;;
43554;SDS011;35085;40.398;-3.702;2022-11-15T14:56:03;2.13;;;0.93;;
43554;SDS011;35085;40.398;-3.702;2022-11-15T15:06:12;2.00;;;0.30;;
43554;SDS011;35085;40.398;-3.702;2022-11-15T15:16:22;2.13;;;0.60;;
43554;SDS011;35085;40.398;-3.702;2022-11-15T15:26:24;2.35;;;0.50;;
43554;SDS011;35085;40.398;-3.702;2022-11-15T15:36:33;1.08;;;0.50;;
43554;SDS011;35085;40.398;-3.702;2022-11-15T15:46:42;2.03;;;0.60;;
43554;SDS011;35085;40.398;-3.702;2022-11-15T15:56:50;3.63;;;1.63;;
43554;SDS011;35085;40.398;-3.702;2022-11-15T16:07:00;1.92;;;0.70;;
43554;SDS011;35085;40.398;-3.702;2022-11-15T16:17:08;4.53;;;0.73;;
43554;SDS011;35085;40.398;-3.702;2022-11-15T16:27:20;5.03;;;1.00;;
43554;SDS011;35085;40.398;-3.702;2022-11-15T16:37:25;3.92;;;1.50;;
43554;SDS011;35085;40.398;-3.702;2022-11-15T16:47:34;3.30;;;1.80;;
43554;SDS011;35085;40.398;-3.702;2022-11-15T16:57:43;12.30;;;4.00;;
43554;SDS011;35085;40.398;-3.702;2022-11-15T17:07:52;3.73;;;1.97;;
43554;SDS011;35085;40.398;-3.702;2022-11-15T17:18:00;6.55;;;3.30;;
43554;SDS011;35085;40.398;-3.702;2022-11-15T17:28:09;3.05;;;1.55;;
43554;SDS011;35085;40.398;-3.702;2022-11-15T17:38:18;5.13;;;2.20;;
43554;SDS011;35085;40.398;-3.702;2022-11-15T17:48:27;5.68;;;2.63;;
43554;SDS011;35085;40.398;-3.702;2022-11-15T17:58:33;4.35;;;2.33;;
43554;SDS011;35085;40.398;-3.702;2022-11-15T18:08:43;4.37;;;2.43;;
43554;SDS011;35085;40.398;-3.702;2022-11-15T18:18:52;3.47;;;2.00;;
43554;SDS011;35085;40.398;-3.702;2022-11-15T18:29:01;6.05;;;3.50;;
43554;SDS011;35085;40.398;-3.702;2022-11-15T18:39:08;3.85;;;1.70;;
43554;SDS011;35085;40.398;-3.702;2022-11-15T18:49:16;4.30;;;2.47;;
43554;SDS011;35085;40.398;-3.702;2022-11-15T18:59:23;6.55;;;2.85;;
43554;SDS011;35085;40.398;-3.702;2022-11-15T19:09:30;3.45;;;1.60;;
43554;SDS011;35085;40.398;-3.702;2022-11-15T19:19:38;15.73;;;8.13;;
43554;SDS011;35085;40.398;-3.702;2022-11-15T19:29:46;6.32;;;2.40;;
43554;SDS011;35085;40.398;-3.702;2022-11-15T19:39:55;11.43;;;5.95;;
43554;SDS011;35085;40.398;-3.702;2022-11-15T19:50:04;6.63;;;3.22;;
43554;SDS011;35085;40.398;-3.702;2022-11-15T20:00:13;4.65;;;2.40;;
43554;SDS011;35085;40.398;-3.702;2022-11-15T20:10:22;4.67;;;2.77;;
43554;SDS011;35085;40.398;-3.702;2022-11-15T20:20:31;8.27;;;4.97;;
43554;SDS011;35085;40.398;-3.702;2022-11-15T20:30:40;5.80;;;3.20;;
43554;SDS011;35085;40.398;-3.702;2022-11-15T20:40:43;8.65;;;4.45;;
43554;SDS011;35085;40.398;-3.702;2022-11-15T20:50:50;5.25;;;2.88;;
43554;SDS011;35085;40.398;-3.702;2022-11-15T21:00:53;6.63;;;2.20;;
43554;SDS011;35085;40.398;-3.702;2022-11-15T21:10:59;3.45;;;2.05;;
43554;SDS011;35085;40.398;-3.702;2022-11-15T21:21:20;3.90;;;2.10;;
43554;SDS011;35085;40.398;-3.702;2022-11-15T21:31:29;4.17;;;2.37;;
43554;SDS011;35085;40.398;-3.702;2022-11-15T21:41:38;3.50;;;1.88;;
43554;SDS011;35085;40.398;-3.702;2022-11-15T21:51:47;2.03;;;1.10;;
43554;SDS011;35085;40.398;-3.702;2022-11-15T22:01:56;6.45;;;2.80;;
43554;SDS011;35085;40.398;-3.702;2022-11-15T22:12:16;3.83;;;2.20;;
43554;SDS011;35085;40.398;-3.702;2022-11-15T22:22:19;3.17;;;2.00;;
43554;SDS011;35085;40.398;-3.702;2022-11-15T22:32:28;2.97;;;1.75;;
43554;SDS011;35085;40.398;-3.702;2022-11-15T22:42:37;3.72;;;2.00;;
43554;SDS011;35085;40.398;-3.702;2022-11-15T22:52:45;2.63;;;1.63;;
43554;SDS011;35085;40.398;-3.702;2022-11-15T23:02:53;4.50;;;1.65;;
43554;SDS011;35085;40.398;-3.702;2022-11-15T23:13:05;1.40;;;0.77;;
43554;SDS011;35085;40.398;-3.702;2022-11-15T23:23:16;1.75;;;0.90;;
43554;SDS011;35085;40.398;-3.702;2022-11-15T23:33:24;1.67;;;1.10;;
43554;SDS011;35085;40.398;-3.702;2022-11-15T23:43:45;0.93;;;0.70;;
43554;SDS011;35085;40.398;-3.702;2022-11-15T23:53:53;0.93;;;0.60;;
